createdAt,value
2023-01-28T00:00:38.210Z,10.26
2023-01-28T00:03:04.939Z,10.24
2023-01-28T00:05:31.635Z,10.22
2023-01-28T00:07:58.221Z,10.19
2023-01-28T00:10:24.926Z,10.17
2023-01-28T00:12:51.599Z,10.16
2023-01-28T00:15:18.323Z,10.14
2023-01-28T00:17:45.047Z,10.12
2023-01-28T00:20:11.992Z,10.09
2023-01-28T00:22:38.718Z,10.07
2023-01-28T00:25:05.523Z,10.06
2023-01-28T00:27:32.248Z,10.04
2023-01-28T00:29:58.850Z,10.00
2023-01-28T00:32:25.646Z,9.97
2023-01-28T00:34:52.234Z,9.95
2023-01-28T00:37:18.901Z,9.93
2023-01-28T00:39:45.705Z,9.90
2023-01-28T00:42:12.376Z,9.91
2023-01-28T00:44:38.938Z,9.90
2023-01-28T00:47:05.623Z,9.88
2023-01-28T00:49:32.218Z,9.88
2023-01-28T00:51:58.881Z,9.87
2023-01-28T00:54:25.697Z,9.88
2023-01-28T00:56:53.779Z,9.87
2023-01-28T00:59:20.546Z,9.85
2023-01-28T01:01:47.381Z,9.85
2023-01-28T01:04:13.996Z,9.84
2023-01-28T01:06:40.862Z,9.82
2023-01-28T01:09:08.663Z,9.80
2023-01-28T01:11:35.535Z,9.80
2023-01-28T01:14:05.390Z,9.79
2023-01-28T01:16:33.664Z,9.75
2023-01-28T01:19:01.187Z,9.72
2023-01-28T01:21:28.430Z,9.70
2023-01-28T01:23:55.172Z,9.68
2023-01-28T01:26:21.884Z,9.65
2023-01-28T01:28:48.623Z,9.63
2023-01-28T01:31:16.202Z,9.60
2023-01-28T01:33:42.928Z,9.57
2023-01-28T01:36:10.248Z,9.55
2023-01-28T01:38:37.150Z,9.53
2023-01-28T01:41:03.980Z,9.55
2023-01-28T01:43:47.101Z,9.55
2023-01-28T01:46:13.788Z,9.54
2023-01-28T01:48:40.543Z,9.54
2023-01-28T01:51:14.771Z,9.54
2023-01-28T01:53:43.556Z,9.55
2023-01-28T01:56:11.114Z,9.55
2023-01-28T01:58:38.848Z,9.56
2023-01-28T02:01:05.463Z,9.55
2023-01-28T02:03:34.266Z,9.55
2023-01-28T02:06:01.030Z,9.53
2023-01-28T02:08:28.201Z,9.51
2023-01-28T02:10:55.647Z,9.46
2023-01-28T02:13:23.184Z,9.44
2023-01-28T02:15:49.795Z,9.41
2023-01-28T02:18:16.464Z,9.39
2023-01-28T02:21:02.010Z,9.38
2023-01-28T02:23:33.437Z,9.35
2023-01-28T02:26:18.982Z,9.31
2023-01-28T02:28:47.106Z,9.28
2023-01-28T02:31:15.941Z,9.27
2023-01-28T02:33:48.816Z,9.23
2023-01-28T02:36:21.668Z,9.21
2023-01-28T02:38:49.334Z,9.19
2023-01-28T02:41:21.816Z,9.17
2023-01-28T02:43:48.457Z,9.14
2023-01-28T02:46:33.684Z,9.12
2023-01-28T02:49:00.387Z,9.09
2023-01-28T02:51:29.705Z,9.07
2023-01-28T02:54:25.886Z,9.02
2023-01-28T02:56:55.816Z,8.98
2023-01-28T02:59:31.220Z,8.96
2023-01-28T03:02:01.919Z,8.94
2023-01-28T03:04:58.174Z,8.95
2023-01-28T03:07:26.042Z,8.92
2023-01-28T03:09:54.928Z,8.92
2023-01-28T03:12:44.795Z,8.91
2023-01-28T03:15:36.982Z,8.87
2023-01-28T03:18:23.857Z,8.86
2023-01-28T03:21:28.248Z,8.86
2023-01-28T03:24:13.847Z,8.87
2023-01-28T03:27:21.493Z,8.85
2023-01-28T03:30:06.912Z,8.87
2023-01-28T03:32:51.935Z,8.87
2023-01-28T03:35:37.502Z,8.89
2023-01-28T03:38:18.758Z,8.86
2023-01-28T03:41:00.240Z,8.84
2023-01-28T03:43:27.152Z,8.81
2023-01-28T03:45:55.590Z,8.80
2023-01-28T03:48:25.719Z,8.78
2023-01-28T03:50:52.396Z,8.75
2023-01-28T03:53:19.417Z,8.71
2023-01-28T03:55:46.795Z,8.71
2023-01-28T03:58:13.499Z,8.71
2023-01-28T04:00:43.534Z,8.71
2023-01-28T04:03:16.563Z,8.71
2023-01-28T04:05:59.781Z,8.71
2023-01-28T04:08:26.477Z,8.70
2023-01-28T04:10:53.159Z,8.70
2023-01-28T04:13:19.929Z,8.68
2023-01-28T04:15:46.726Z,8.68
2023-01-28T04:18:13.476Z,8.68
2023-01-28T04:20:40.191Z,8.64
2023-01-28T04:23:08.002Z,8.62
2023-01-28T04:25:34.640Z,8.57
2023-01-28T04:28:01.225Z,8.54
2023-01-28T04:30:28.572Z,8.49
2023-01-28T04:32:55.795Z,8.45
2023-01-28T04:35:22.359Z,8.40
2023-01-28T04:37:49.051Z,8.35
2023-01-28T04:40:15.798Z,8.31
2023-01-28T04:42:42.445Z,8.27
2023-01-28T04:45:09.269Z,8.26
2023-01-28T04:47:36.061Z,8.22
2023-01-28T04:50:02.754Z,8.18
2023-01-28T04:52:29.515Z,8.14
2023-01-28T04:54:56.232Z,8.10
2023-01-28T04:57:23.075Z,8.05
2023-01-28T04:59:49.771Z,8.01
2023-01-28T05:02:16.594Z,7.99
2023-01-28T05:04:43.441Z,7.98
2023-01-28T05:07:10.119Z,7.95
2023-01-28T05:09:37.073Z,7.92
2023-01-28T05:12:03.810Z,7.88
2023-01-28T05:14:30.544Z,7.87
2023-01-28T05:16:57.109Z,7.84
2023-01-28T05:19:23.981Z,7.81
2023-01-28T05:21:50.649Z,7.80
2023-01-28T05:24:17.342Z,7.79
2023-01-28T05:26:44.000Z,7.27
2023-01-28T05:29:10.776Z,7.81
2023-01-28T05:31:37.367Z,7.81
2023-01-28T05:34:04.170Z,7.79
2023-01-28T05:36:30.859Z,7.75
2023-01-28T05:38:57.489Z,7.73
2023-01-28T05:41:24.149Z,7.71
2023-01-28T05:43:50.861Z,7.71
2023-01-28T05:46:17.437Z,7.71
2023-01-28T05:48:44.053Z,7.73
2023-01-28T05:51:10.806Z,7.76
2023-01-28T05:53:37.500Z,7.78
2023-01-28T05:56:04.235Z,7.48
2023-01-28T05:58:32.554Z,7.82
2023-01-28T06:00:59.283Z,7.83
2023-01-28T06:03:26.010Z,7.86
2023-01-28T06:05:52.674Z,7.87
2023-01-28T06:08:19.245Z,7.84
2023-01-28T06:10:46.455Z,7.81
2023-01-28T06:13:13.182Z,7.76
2023-01-28T06:15:39.809Z,7.73
2023-01-28T06:18:06.484Z,7.67
2023-01-28T06:20:33.192Z,7.61
2023-01-28T06:22:59.745Z,7.56
2023-01-28T06:25:26.312Z,7.52
2023-01-28T06:27:53.161Z,7.51
2023-01-28T06:30:20.288Z,7.52
2023-01-28T06:32:46.913Z,7.53
2023-01-28T06:35:13.589Z,7.56
2023-01-28T06:37:40.311Z,7.56
2023-01-28T06:40:07.327Z,7.54
2023-01-28T06:42:34.058Z,7.53
2023-01-28T06:45:00.921Z,7.53
2023-01-28T06:47:27.597Z,7.52
2023-01-28T06:49:54.257Z,7.52
2023-01-28T06:52:21.069Z,7.52
2023-01-28T06:54:47.670Z,7.53
2023-01-28T06:57:14.295Z,7.53
2023-01-28T06:59:41.025Z,7.53
2023-01-28T07:02:07.846Z,7.51
2023-01-28T07:04:34.610Z,7.49
2023-01-28T07:07:01.309Z,7.47
2023-01-28T07:09:28.110Z,7.46
2023-01-28T07:11:54.833Z,7.44
2023-01-28T07:14:21.541Z,7.39
2023-01-28T07:16:48.361Z,7.32
2023-01-28T07:19:15.109Z,7.28
2023-01-28T07:21:41.857Z,7.25
2023-01-28T07:24:08.785Z,7.24
2023-01-28T07:26:35.336Z,7.23
2023-01-28T07:29:02.016Z,7.20
2023-01-28T07:31:28.790Z,7.20
2023-01-28T07:33:55.678Z,7.19
2023-01-28T07:36:22.453Z,7.16
2023-01-28T07:38:49.192Z,7.13
2023-01-28T07:41:15.785Z,7.10
2023-01-28T07:43:42.702Z,7.08
2023-01-28T07:46:09.269Z,7.06
2023-01-28T07:48:36.213Z,7.06
2023-01-28T07:51:03.976Z,7.04
2023-01-28T07:53:30.529Z,7.03
2023-01-28T07:56:00.956Z,7.03
2023-01-28T07:58:27.641Z,7.04
2023-01-28T08:00:56.656Z,7.05
2023-01-28T08:03:23.336Z,7.05
2023-01-28T08:05:50.365Z,7.08
2023-01-28T08:08:17.201Z,7.11
2023-01-28T08:10:46.641Z,7.20
2023-01-28T08:13:14.218Z,7.38
2023-01-28T08:15:41.161Z,7.63
2023-01-28T08:18:08.226Z,7.90
2023-01-28T08:20:35.100Z,8.16
2023-01-28T08:23:23.288Z,8.41
2023-01-28T08:25:51.197Z,8.72
2023-01-28T08:28:17.875Z,8.97
2023-01-28T08:30:44.606Z,9.22
2023-01-28T08:33:12.090Z,9.48
2023-01-28T08:35:38.723Z,9.72
2023-01-28T08:38:05.782Z,10.00
2023-01-28T08:40:32.556Z,10.27
2023-01-28T08:42:59.253Z,10.54
2023-01-28T08:45:27.924Z,10.80
2023-01-28T08:47:57.902Z,11.06
2023-01-28T08:50:25.537Z,11.31
2023-01-28T08:52:55.947Z,11.57
2023-01-28T08:55:22.593Z,11.81
2023-01-28T08:57:49.381Z,12.07
2023-01-28T09:00:16.312Z,12.26
2023-01-28T09:02:43.314Z,12.55
2023-01-28T09:05:10.896Z,12.76
2023-01-28T09:07:37.995Z,13.05
2023-01-28T09:10:05.175Z,13.31
2023-01-28T09:12:32.055Z,13.56
2023-01-28T09:14:58.874Z,13.82
2023-01-28T09:17:25.719Z,14.14
2023-01-28T09:19:52.503Z,14.48
2023-01-28T09:22:19.122Z,14.80
2023-01-28T09:24:45.877Z,15.09
2023-01-28T09:27:12.658Z,15.40
2023-01-28T09:29:39.454Z,15.72
2023-01-28T09:32:07.449Z,16.03
2023-01-28T09:34:34.215Z,16.34
2023-01-28T09:37:00.833Z,16.67
2023-01-28T09:39:28.788Z,17.00
2023-01-28T09:41:58.443Z,17.38
2023-01-28T09:44:37.168Z,17.75
2023-01-28T09:47:04.443Z,18.17
2023-01-28T09:49:37.329Z,18.55
2023-01-28T09:52:04.269Z,18.93
2023-01-28T09:54:37.927Z,19.30
2023-01-28T09:57:07.218Z,19.67
2023-01-28T09:59:34.835Z,19.96
2023-01-28T10:02:20.702Z,20.23
2023-01-28T10:04:47.384Z,20.48
2023-01-28T10:07:25.320Z,20.64
2023-01-28T10:10:02.033Z,20.80
2023-01-28T10:12:47.678Z,20.89
2023-01-28T10:15:20.137Z,20.93
2023-01-28T10:18:03.877Z,20.92
2023-01-28T10:20:39.353Z,20.92
2023-01-28T10:23:23.136Z,20.96
2023-01-28T10:25:49.776Z,21.03
2023-01-28T10:28:21.217Z,21.12
2023-01-28T10:30:48.306Z,21.19
2023-01-28T10:33:19.611Z,21.27
2023-01-28T10:35:48.283Z,21.40
2023-01-28T10:38:15.479Z,21.52
2023-01-28T10:40:42.270Z,21.65
2023-01-28T10:43:09.336Z,21.77
2023-01-28T10:45:41.497Z,21.87
2023-01-28T10:48:22.013Z,21.96
2023-01-28T10:50:54.683Z,22.07
2023-01-28T10:53:21.384Z,22.12
2023-01-28T10:55:52.267Z,22.18
2023-01-28T10:58:25.542Z,22.30
2023-01-28T11:00:53.023Z,22.41
2023-01-28T11:03:19.677Z,22.51
2023-01-28T11:05:52.555Z,22.63
2023-01-28T11:08:19.374Z,22.75
2023-01-28T11:10:46.300Z,22.88
2023-01-28T11:13:22.064Z,23.09
2023-01-28T11:15:53.361Z,23.30
2023-01-28T11:18:25.120Z,23.49
2023-01-28T11:20:56.991Z,23.69
2023-01-28T11:23:27.823Z,23.88
2023-01-28T11:26:01.275Z,24.06
2023-01-28T11:28:28.349Z,24.22
2023-01-28T11:30:56.211Z,24.42
2023-01-28T11:33:24.339Z,24.57
2023-01-28T11:35:54.697Z,24.69
2023-01-28T11:38:22.112Z,24.83
2023-01-28T11:40:53.129Z,25.00
2023-01-28T11:43:20.771Z,25.17
2023-01-28T11:45:50.593Z,25.36
2023-01-28T11:48:24.102Z,25.54
2023-01-28T11:51:09.972Z,25.71
2023-01-28T11:53:56.846Z,25.90
2023-01-28T11:56:24.181Z,26.09
2023-01-28T11:58:56.865Z,26.24
2023-01-28T12:01:23.399Z,26.37
2023-01-28T12:04:03.026Z,26.50
2023-01-28T12:06:48.561Z,26.57
2023-01-28T12:09:15.211Z,26.66
2023-01-28T12:12:07.226Z,26.80
2023-01-28T12:14:33.883Z,26.85
2023-01-28T12:17:03.331Z,26.91
2023-01-28T12:19:56.600Z,27.04
2023-01-28T12:22:42.401Z,27.24
2023-01-28T12:25:20.943Z,27.47
2023-01-28T12:27:54.729Z,27.70
2023-01-28T12:30:24.248Z,27.81
2023-01-28T12:32:55.085Z,27.84
2023-01-28T12:35:44.771Z,27.83
2023-01-28T12:38:18.813Z,27.86
2023-01-28T12:40:47.623Z,27.93
2023-01-28T12:43:38.709Z,28.07
2023-01-28T12:46:06.547Z,28.22
2023-01-28T12:48:34.793Z,28.31
2023-01-28T12:51:04.724Z,28.37
2023-01-28T12:53:31.358Z,28.47
2023-01-28T12:56:04.865Z,28.56
2023-01-28T12:58:39.667Z,28.55
2023-01-28T13:01:08.336Z,28.66
2023-01-28T13:03:36.331Z,28.78
2023-01-28T13:06:05.043Z,28.92
2023-01-28T13:08:31.729Z,29.07
2023-01-28T13:10:59.388Z,29.19
2023-01-28T13:13:38.848Z,29.31
2023-01-28T13:16:06.117Z,29.47
2023-01-28T13:18:39.031Z,29.57
2023-01-28T13:21:06.264Z,29.68
2023-01-28T13:23:42.219Z,29.74
2023-01-28T13:26:29.091Z,29.85
2023-01-28T13:29:06.917Z,29.97
2023-01-28T13:31:37.266Z,30.04
2023-01-28T13:34:04.318Z,30.07
2023-01-28T13:36:34.889Z,29.74
2023-01-28T13:39:02.644Z,28.65
2023-01-28T13:41:42.580Z,27.30
2023-01-28T13:44:28.707Z,25.86
2023-01-28T13:46:56.943Z,24.58
2023-01-28T13:49:29.185Z,23.56
2023-01-28T13:51:58.398Z,22.54
2023-01-28T13:54:25.030Z,21.63
2023-01-28T13:56:51.655Z,20.92
2023-01-28T13:59:18.443Z,20.32
2023-01-28T14:01:45.172Z,19.83
2023-01-28T14:04:15.012Z,19.37
2023-01-28T14:07:00.109Z,18.95
2023-01-28T14:09:32.987Z,18.51
2023-01-28T14:12:05.442Z,18.11
2023-01-28T14:14:35.240Z,17.75
2023-01-28T14:17:01.877Z,17.48
2023-01-28T14:19:29.461Z,17.22
2023-01-28T14:21:56.213Z,16.98
2023-01-28T14:24:22.913Z,16.80
2023-01-28T14:26:58.981Z,16.62
2023-01-28T14:29:27.924Z,16.45
2023-01-28T14:31:55.128Z,16.29
2023-01-28T14:34:28.214Z,16.17
2023-01-28T14:36:56.676Z,16.05
2023-01-28T14:39:26.434Z,15.94
2023-01-28T14:41:54.476Z,15.83
2023-01-28T14:44:38.161Z,15.77
2023-01-28T14:47:04.916Z,15.70
2023-01-28T14:49:54.368Z,15.65
2023-01-28T14:52:21.174Z,15.58
2023-01-28T14:54:47.704Z,15.56
2023-01-28T14:57:16.713Z,15.53
2023-01-28T14:59:44.391Z,15.49
2023-01-28T15:02:21.800Z,15.46
2023-01-28T15:04:48.709Z,15.43
2023-01-28T15:07:18.442Z,15.36
2023-01-28T15:09:45.184Z,15.29
2023-01-28T15:12:11.912Z,15.27
2023-01-28T15:14:40.008Z,15.22
2023-01-28T15:17:06.640Z,15.18
2023-01-28T15:19:34.859Z,15.15
2023-01-28T15:22:02.318Z,15.11
2023-01-28T15:24:29.209Z,15.07
2023-01-28T15:26:55.982Z,15.03
2023-01-28T15:29:26.755Z,14.98
2023-01-28T15:31:53.556Z,14.92
2023-01-28T15:34:21.598Z,14.91
2023-01-28T15:36:49.775Z,14.88
2023-01-28T15:39:23.949Z,14.85
2023-01-28T15:41:53.864Z,14.83
2023-01-28T15:44:35.564Z,14.79
2023-01-28T15:47:05.834Z,14.76
2023-01-28T15:49:35.877Z,14.75
2023-01-28T15:52:02.520Z,14.73
2023-01-28T15:54:30.634Z,14.71
2023-01-28T15:56:57.407Z,14.68
2023-01-28T15:59:28.197Z,14.66
2023-01-28T16:02:18.257Z,14.64
2023-01-28T16:04:55.606Z,14.59
2023-01-28T16:07:22.316Z,14.57
2023-01-28T16:09:55.424Z,14.55
2023-01-28T16:12:26.543Z,14.52
2023-01-28T16:14:58.658Z,14.46
2023-01-28T16:17:26.898Z,14.43
2023-01-28T16:19:57.987Z,14.39
2023-01-28T16:22:43.792Z,14.37
2023-01-28T16:25:24.152Z,14.33
2023-01-28T16:27:51.011Z,14.30
2023-01-28T16:30:24.859Z,14.27
2023-01-28T16:32:51.667Z,14.23
2023-01-28T16:35:19.425Z,14.21
2023-01-28T16:37:46.224Z,14.17
2023-01-28T16:40:13.817Z,14.13
2023-01-28T16:42:40.454Z,14.10
2023-01-28T16:45:07.401Z,14.07
2023-01-28T16:47:34.220Z,14.02
2023-01-28T16:50:00.828Z,13.99
2023-01-28T16:52:27.804Z,13.96
2023-01-28T16:54:54.675Z,13.93
2023-01-28T16:57:21.301Z,13.88
2023-01-28T16:59:48.006Z,13.85
2023-01-28T17:02:17.678Z,13.83
2023-01-28T17:04:44.270Z,13.81
2023-01-28T17:07:10.897Z,13.80
2023-01-28T17:09:37.628Z,13.75
2023-01-28T17:12:04.360Z,13.72
2023-01-28T17:14:32.897Z,13.70
2023-01-28T17:16:59.522Z,13.66
2023-01-28T17:19:26.101Z,13.62
2023-01-28T17:21:52.673Z,13.58
2023-01-28T17:24:19.418Z,13.56
2023-01-28T17:26:47.824Z,13.51
2023-01-28T17:29:14.423Z,13.47
2023-01-28T17:31:45.643Z,13.42
2023-01-28T17:34:12.478Z,13.38
2023-01-28T17:36:40.354Z,13.33
2023-01-28T17:39:07.702Z,13.28
2023-01-28T17:41:34.459Z,13.24
2023-01-28T17:44:01.064Z,13.20
2023-01-28T17:46:31.133Z,13.15
2023-01-28T17:49:01.700Z,13.10
2023-01-28T17:51:28.448Z,13.05
2023-01-28T17:53:55.336Z,13.01
2023-01-28T17:56:23.136Z,12.95
2023-01-28T17:58:52.573Z,12.90
2023-01-28T18:01:22.423Z,12.85
2023-01-28T18:03:49.070Z,12.79
2023-01-28T18:06:15.878Z,12.76
2023-01-28T18:08:44.505Z,12.71
2023-01-28T18:11:14.308Z,12.68
2023-01-28T18:13:41.463Z,12.63
2023-01-28T18:16:12.330Z,12.60
2023-01-28T18:18:40.752Z,12.55
2023-01-28T18:21:07.637Z,12.52
2023-01-28T18:23:34.290Z,12.48
2023-01-28T18:26:01.488Z,12.46
2023-01-28T18:28:28.747Z,12.42
2023-01-28T18:30:55.384Z,12.42
2023-01-28T18:33:25.279Z,12.38
2023-01-28T18:35:52.015Z,12.33
2023-01-28T18:38:18.746Z,12.27
2023-01-28T18:40:45.983Z,12.23
2023-01-28T18:43:14.779Z,12.17
2023-01-28T18:45:41.591Z,12.14
2023-01-28T18:48:08.249Z,12.09
2023-01-28T18:50:35.103Z,12.05
2023-01-28T18:53:01.675Z,12.03
2023-01-28T18:55:28.269Z,12.01
2023-01-28T18:57:55.773Z,11.97
2023-01-28T19:00:22.377Z,11.93
2023-01-28T19:02:50.632Z,11.88
2023-01-28T19:05:20.874Z,11.84
2023-01-28T19:07:47.469Z,11.80
2023-01-28T19:10:14.081Z,11.79
2023-01-28T19:12:40.778Z,11.75
2023-01-28T19:15:21.692Z,11.72
2023-01-28T19:17:48.443Z,11.70
2023-01-28T19:20:15.069Z,11.70
2023-01-28T19:22:42.298Z,11.70
2023-01-28T19:25:11.653Z,11.67
2023-01-28T19:27:38.635Z,11.67
2023-01-28T19:30:06.041Z,11.67
2023-01-28T19:32:34.633Z,11.66
2023-01-28T19:35:01.862Z,11.64
2023-01-28T19:37:29.605Z,11.63
2023-01-28T19:39:56.511Z,11.61
2023-01-28T19:42:23.489Z,11.61
2023-01-28T19:44:50.097Z,11.60
2023-01-28T19:47:16.786Z,11.59
2023-01-28T19:49:45.238Z,11.58
2023-01-28T19:52:14.569Z,11.57
2023-01-28T19:54:41.727Z,11.58
2023-01-28T19:57:08.282Z,11.56
2023-01-28T19:59:38.039Z,11.57
2023-01-28T20:02:06.132Z,11.55
2023-01-28T20:04:34.868Z,11.54
2023-01-28T20:07:01.576Z,11.51
2023-01-28T20:09:28.312Z,11.49
2023-01-28T20:11:59.081Z,11.46
2023-01-28T20:14:28.222Z,11.40
2023-01-28T20:16:55.280Z,11.38
2023-01-28T20:19:21.844Z,11.35
2023-01-28T20:21:53.600Z,11.35
2023-01-28T20:24:21.286Z,11.33
2023-01-28T20:26:47.921Z,11.32
2023-01-28T20:29:18.197Z,11.31
2023-01-28T20:32:00.260Z,11.29
2023-01-28T20:34:31.856Z,11.26
2023-01-28T20:36:58.569Z,11.23
2023-01-28T20:39:25.213Z,11.19
2023-01-28T20:41:51.873Z,11.19
2023-01-28T20:44:18.421Z,11.15
2023-01-28T20:46:45.099Z,11.13
2023-01-28T20:49:11.785Z,11.12
2023-01-28T20:51:49.501Z,11.12
2023-01-28T20:54:19.754Z,11.11
2023-01-28T20:56:46.347Z,11.08
2023-01-28T20:59:13.434Z,11.07
2023-01-28T21:01:40.194Z,11.06
2023-01-28T21:04:07.962Z,11.05
2023-01-28T21:06:40.286Z,11.05
2023-01-28T21:09:06.897Z,11.04
2023-01-28T21:11:33.480Z,11.05
2023-01-28T21:14:00.206Z,11.06
2023-01-28T21:16:27.074Z,11.06
2023-01-28T21:18:53.665Z,11.08
2023-01-28T21:21:24.344Z,11.08
2023-01-28T21:23:51.019Z,11.08
2023-01-28T21:26:17.821Z,11.08
2023-01-28T21:28:44.622Z,11.10
2023-01-28T21:31:12.234Z,11.10
2023-01-28T21:33:38.853Z,11.08
2023-01-28T21:36:09.990Z,11.06
2023-01-28T21:38:36.539Z,11.03
2023-01-28T21:41:04.081Z,11.01
2023-01-28T21:43:30.771Z,11.03
2023-01-28T21:45:57.896Z,11.09
2023-01-28T21:48:24.723Z,11.13
2023-01-28T21:51:09.962Z,11.16
2023-01-28T21:53:39.662Z,11.19
2023-01-28T21:56:06.693Z,11.18
2023-01-28T21:58:52.910Z,11.18
2023-01-28T22:01:19.482Z,11.13
2023-01-28T22:03:46.076Z,11.10
2023-01-28T22:06:12.812Z,11.08
2023-01-28T22:08:39.487Z,11.07
2023-01-28T22:11:06.343Z,11.04
2023-01-28T22:13:33.234Z,11.02
2023-01-28T22:15:59.981Z,11.02
2023-01-28T22:18:26.674Z,11.02
2023-01-28T22:20:57.327Z,11.00
2023-01-28T22:23:23.904Z,10.98
2023-01-28T22:25:50.456Z,10.99
2023-01-28T22:28:17.109Z,10.96
2023-01-28T22:30:43.710Z,10.94
2023-01-28T22:33:10.347Z,10.91
2023-01-28T22:35:39.839Z,10.87
2023-01-28T22:38:06.491Z,10.82
2023-01-28T22:40:33.256Z,10.79
2023-01-28T22:42:59.983Z,10.78
2023-01-28T22:45:26.637Z,10.75
2023-01-28T22:47:53.298Z,10.72
2023-01-28T22:50:20.498Z,10.68
2023-01-28T22:52:47.290Z,10.65
2023-01-28T22:55:13.854Z,10.65
2023-01-28T22:57:40.737Z,10.64
2023-01-28T23:00:12.023Z,10.62
2023-01-28T23:02:38.917Z,10.60
2023-01-28T23:05:06.227Z,10.61
2023-01-28T23:07:32.869Z,10.63
2023-01-28T23:09:59.516Z,10.64
2023-01-28T23:12:26.162Z,10.65
2023-01-28T23:15:11.376Z,10.66
2023-01-28T23:17:56.563Z,10.66
2023-01-28T23:20:42.026Z,10.66
2023-01-28T23:23:36.665Z,10.67
2023-01-28T23:26:04.290Z,10.66
2023-01-28T23:28:31.736Z,10.67
2023-01-28T23:30:58.581Z,10.68
2023-01-28T23:33:25.368Z,10.66
2023-01-28T23:35:51.957Z,10.65
2023-01-28T23:38:18.693Z,10.67
2023-01-28T23:40:45.288Z,10.67
2023-01-28T23:43:12.928Z,10.63
2023-01-28T23:45:39.884Z,10.62
2023-01-28T23:48:08.476Z,10.61
2023-01-28T23:50:35.338Z,10.60
2023-01-28T23:53:02.065Z,10.58
2023-01-28T23:55:28.748Z,10.58
2023-01-28T23:57:55.379Z,10.54
